Latest Coastal Weather Observations for Bougainville Reef

IDQ60701

Issued at 2:41 am EST Monday 27 February 2017 (issued every 10 minutes, with the page automatically refreshed every 10 minutes)

About coastal observations | Map of coastal stations | Coastal observations for QLD | Marine services | Other Formats
Station Details ID: 200840 Name: BOUGAINVILLE REEF Lat: -15.49 Lon: 147.12 Height: 0.0 m
Data from the previous 72 hours. | See also: Recent months for locations in Queensland
Date/Time
EST
Temp
°C
Wind Pressure Rain since
9am
mm
Weather Cloud Vis
km
Sea
Height
m
Swell
Dir  Spd
kts
Gust
kts
hPa Trend Height
m
Period
s
Dir
27/02:30am 27.4 SE 18 29 1007.3 - - - - - - - - -
27/02:21am 27.8 ESE 19 29 1007.2 - - - - - - - - -
27/02:00am 28.6 ESE 16 20 1007.5 - - - - - - - - -
27/01:30am 28.0 ESE 14 16 1008.0 - - - - - - - - -
27/01:00am 28.1 E 22 24 1008.3 - - - - - - - - -
27/12:30am 28.7 E 15 17 1008.5 - - - - - - - - -
27/12:00am 28.8 ESE 20 22 1009.0 - - - - - - - - -
 
Date/Time
EST
Temp
°C
Wind Pressure Rain since
9am
mm
Weather Cloud Vis
km
Sea
Height
m
Swell
Dir  Spd
kts
Gust
kts
hPa Trend Height
m
Period
s
Dir
26/11:30pm 29.0 ESE 18 21 1009.0 - - - - - - - - -
26/11:00pm 29.1 ESE 18 21 1009.4 - - - - - - - - -
26/10:30pm 28.9 ESE 17 21 1009.3 - - - - - - - - -
26/10:11pm 28.5 ESE 18 29 1009.0 - - - - - - - - -
26/10:00pm 29.3 ESE 18 21 1009.1 - - - - - - - - -
26/09:30pm 28.9 ESE 19 22 1008.8 - - - - - - - - -
26/09:00pm 28.7 SE 14 16 1008.7 - - - - - - - - -
26/08:42pm 28.4 ESE 17 27 1008.7 - - - - - - - - -
26/08:30pm 28.5 SE 18 25 1008.5 - - - - - - - - -
26/08:00pm 29.0 SE 16 19 1008.0 - - - - - - - - -
26/07:30pm 28.9 SE 17 20 1007.8 - - - - - - - - -
26/07:00pm 28.9 SSE 16 20 1007.5 - - - - - - - - -
26/06:30pm 29.0 SSE 17 20 1007.3 - - - - - - - - -
26/06:00pm 28.9 SE 16 19 1007.2 - - - - - - - - -
26/05:30pm 29.0 SE 17 19 1006.9 - - - - - - - - -
26/05:00pm 28.8 SE 18 19 1006.8 - - - - - - - - -
26/04:30pm 28.9 SE 18 21 1006.7 - - - - - - - - -
26/04:00pm 29.0 SE 17 22 1006.6 - - - - - - - - -
26/03:30pm 29.0 SE 17 19 1006.7 - - - - - - - - -
26/03:00pm 28.2 SE 17 18 1006.9 - - - - - - - - -
26/02:40pm 27.8 SE 23 26 1006.9 - - - - - - - - -
26/02:30pm 28.7 SE 13 16 1007.0 - - - - - - - - -
26/02:00pm 29.0 SE 15 19 1007.1 - - - - - - - - -
26/01:30pm 28.7 SSE 13 15 1007.4 - - - - - - - - -
26/01:00pm 29.0 SE 16 19 1007.9 - - - - - - - - -
26/12:30pm 29.0 SE 14 15 1008.2 - - - - - - - - -
26/12:00pm 29.1 SE 15 18 1008.5 - - - - - - - - -
26/11:30am 28.9 SE 14 17 1008.7 - - - - - - - - -
26/11:00am 28.9 SE 15 17 1009.0 - - - - - - - - -
26/10:30am 28.9 SE 16 19 1008.9 - - - - - - - - -
26/10:00am 29.0 SE 16 19 1009.0 - - - - - - - - -
26/09:30am 28.9 SE 16 18 1009.2 - - - - - - - - -
26/09:00am 29.2 SE 15 17 1009.3 - - - - - - - - -
26/08:30am 28.9 SE 14 15 1009.3 - - - - - - - - -
26/08:00am 28.8 SE 13 15 1009.1 - - - - - - - - -
26/07:30am 28.8 SE 14 16 1008.9 - - - - - - - - -
26/07:00am 28.9 SE 12 17 1008.3 - - - - - - - - -
26/06:30am 28.8 SE 13 16 1008.0 - - - - - - - - -
26/06:00am 28.6 SE 14 18 1007.4 - - - - - - - - -
26/05:30am 28.7 ESE 14 16 1007.1 - - - - - - - - -
26/05:00am 28.7 ESE 15 16 1007.0 - - - - - - - - -
26/04:30am 28.7 ESE 16 19 1006.8 - - - - - - - - -
26/04:00am 28.7 ESE 15 17 1006.9 - - - - - - - - -
26/03:30am 28.7 ESE 15 18 1006.9 - - - - - - - - -
26/03:00am 28.7 ESE 16 17 1007.2 - - - - - - - - -
26/02:30am 28.6 ESE 14 16 1007.3 - - - - - - - - -
26/02:00am 28.8 ESE 15 18 1007.7 - - - - - - - - -
26/01:30am 28.8 ESE 16 19 1008.0 - - - - - - - - -
26/01:00am 28.9 ESE 16 19 1008.6 - - - - - - - - -
26/12:30am 28.9 ESE 18 21 1008.7 - - - - - - - - -
26/12:00am 29.1 ESE 18 20 1009.1 - - - - - - - - -
 
Date/Time
EST
Temp
°C
Wind Pressure Rain since
9am
mm
Weather Cloud Vis
km
Sea
Height
m
Swell
Dir  Spd
kts
Gust
kts
hPa Trend Height
m
Period
s
Dir
25/11:30pm 29.2 ESE 19 22 1009.5 - - - - - - - - -
25/11:00pm 29.1 ESE 19 23 1009.5 - - - - - - - - -
25/10:30pm 29.1 ESE 19 22 1009.6 - - - - - - - - -
25/10:00pm 29.3 ESE 20 23 1009.3 - - - - - - - - -
25/09:30pm 29.2 ESE 21 24 1009.2 - - - - - - - - -
25/09:00pm 29.2 ESE 19 22 1009.3 - - - - - - - - -
25/08:30pm 29.4 ESE 21 24 1009.0 - - - - - - - - -
25/08:00pm 29.2 ESE 20 23 1008.4 - - - - - - - - -
25/07:30pm 29.2 ESE 21 23 1008.2 - - - - - - - - -
25/07:00pm 29.1 ESE 19 22 1007.9 - - - - - - - - -
25/06:30pm 29.2 ESE 18 21 1007.6 - - - - - - - - -
25/06:00pm 28.1 E 15 16 1007.2 - - - - - - - - -
25/05:30pm 27.5 E 21 25 1007.0 - - - - - - - - -
25/05:18pm 28.0 E 22 27 1006.8 - - - - - - - - -
25/05:00pm 28.5 ESE 18 19 1006.7 - - - - - - - - -
25/04:30pm 28.8 ESE 18 20 1006.8 - - - - - - - - -
25/04:00pm 29.3 ESE 16 22 1006.9 - - - - - - - - -
25/03:30pm 29.5 ESE 16 18 1007.2 - - - - - - - - -
25/03:00pm 29.2 ESE 17 19 1007.5 - - - - - - - - -
25/02:30pm 28.8 ESE 16 18 1007.7 - - - - - - - - -
25/02:00pm 28.9 ESE 12 17 1008.0 - - - - - - - - -
25/01:30pm 28.2 ESE 14 18 1008.3 - - - - - - - - -
25/01:00pm 29.0 ESE 13 17 1008.5 - - - - - - - - -
25/12:30pm 27.4 SSE 6 16 1008.8 - - - - - - - - -
25/12:00pm 28.9 ESE 12 15 1009.4 - - - - - - - - -
25/11:30am 28.7 ESE 16 19 1009.8 - - - - - - - - -
25/11:00am 29.2 ESE 14 16 1010.0 - - - - - - - - -
25/10:30am 29.0 ESE 13 15 1010.2 - - - - - - - - -
25/10:00am 28.4 E 12 12 1010.4 - - - - - - - - -
25/09:30am 27.5 E 9 11 1010.5 - - - - - - - - -
25/09:12am 25.9 E 10 20 1010.6 - - - - - - - - -
25/09:00am 28.5 ESE 8 24 1010.5 - - - - - - - - -
25/08:57am 27.6 ESE 20 23 1010.6 - - - - - - - - -
25/08:30am 28.5 ESE 9 11 1010.5 - - - - - - - - -
25/08:00am 27.8 E 14 14 1010.1 - - - - - - - - -
25/07:30am 28.3 SE 14 17 1010.1 - - - - - - - - -
25/07:00am 28.5 SE 11 13 1009.8 - - - - - - - - -
25/06:30am 28.6 SE 10 12 1009.7 - - - - - - - - -
25/06:00am 28.4 ESE 9 13 1009.5 - - - - - - - - -
25/05:30am 28.3 ESE 9 11 1009.5 - - - - - - - - -
25/05:00am 28.0 ESE 10 11 1008.8 - - - - - - - - -
25/04:30am 28.1 ESE 11 13 1008.9 - - - - - - - - -
25/04:00am 28.0 ESE 15 16 1008.6 - - - - - - - - -
25/03:30am 28.4 ESE 13 14 1008.8 - - - - - - - - -
25/03:00am 28.0 SE 12 14 1008.7 - - - - - - - - -
25/02:30am 28.3 E 13 15 1008.5 - - - - - - - - -
25/02:00am 28.5 SE 10 15 1008.9 - - - - - - - - -
25/01:30am 28.6 SE 10 13 1009.0 - - - - - - - - -
25/01:00am 28.8 SE 8 11 1009.7 - - - - - - - - -
25/12:30am 28.7 ESE 10 11 1010.1 - - - - - - - - -
25/12:00am 28.4 ESE 11 13 1010.5 - - - - - - - - -
 
Date/Time
EST
Temp
°C
Wind Pressure Rain since
9am
mm
Weather Cloud Vis
km
Sea
Height
m
Swell
Dir  Spd
kts
Gust
kts
hPa Trend Height
m
Period
s
Dir
24/11:30pm 28.7 ESE 12 14 1010.8 - - - - - - - - -
24/11:00pm 28.4 ESE 10 12 1011.1 - - - - - - - - -
24/10:30pm 28.5 ESE 12 14 1011.2 - - - - - - - - -
24/10:00pm 28.6 ESE 12 15 1010.9 - - - - - - - - -
24/09:30pm 28.3 ESE 13 15 1010.9 - - - - - - - - -
24/09:00pm 27.9 ESE 17 18 1010.4 - - - - - - - - -
24/08:30pm 27.9 ESE 16 19 1010.5 - - - - - - - - -
24/08:00pm 28.3 SE 18 24 1010.0 - - - - - - - - -
24/07:30pm 28.9 SE 13 15 1009.7 - - - - - - - - -
24/07:00pm 28.6 SE 14 16 1009.8 - - - - - - - - -
24/06:30pm 28.5 SE 13 16 1009.5 - - - - - - - - -
24/06:00pm 28.7 SE 13 17 1009.0 - - - - - - - - -
24/05:30pm 28.5 SE 12 14 1009.0 - - - - - - - - -
24/05:00pm 28.8 ESE 13 15 1008.9 - - - - - - - - -
24/04:30pm 28.6 ESE 13 16 1008.7 - - - - - - - - -
24/04:00pm 28.5 SE 16 17 1008.8 - - - - - - - - -
24/03:30pm 29.2 ESE 12 14 1008.8 - - - - - - - - -
24/03:00pm 28.8 ESE 11 13 1009.1 - - - - - - - - -
24/02:30pm 28.5 SE 12 14 1009.2 - - - - - - - - -
24/02:00pm 29.4 E 11 17 1009.4 - - - - - - - - -
24/01:30pm 29.1 E 12 13 1009.7 - - - - - - - - -
24/01:00pm 29.2 E 11 15 1010.1 - - - - - - - - -
24/12:30pm 28.8 E 7 8 1010.5 - - - - - - - - -
24/12:00pm 26.8 NNE 18 13 1011.4 - - - - - - - - -
24/11:52am 27.0 NNE 11 25 1011.4 - - - - - - - - -
24/11:43am 26.5 NE 22 29 1011.4 - - - - - - - - -
24/11:37am 26.8 E 24 29 1011.3 - - - - - - - - -
24/11:36am 27.8 ESE 15 28 1011.5 - - - - - - - - -
24/11:30am 29.0 ESE 12 14 1011.6 - - - - - - - - -
24/11:00am 29.4 E 13 14 1011.7 - - - - - - - - -
24/10:30am 29.6 E 14 16 1011.9 - - - - - - - - -
24/10:00am 29.2 E 14 16 1012.1 - - - - - - - - -
24/09:30am 29.5 E 14 17 1012.2 - - - - - - - - -
24/09:00am 29.1 E 14 15 1012.1 - - - - - - - - -
24/08:30am 29.2 E 15 17 1012.0 - - - - - - - - -
24/08:00am 29.0 E 18 19 1011.6 - - - - - - - - -
24/07:30am 29.0 ESE 18 20 1011.5 - - - - - - - - -
24/07:00am 28.4 ESE 18 22 1010.7 - - - - - - - - -
24/06:30am 28.8 E 18 21 1010.4 - - - - - - - - -
24/06:00am 28.7 E 16 19 1010.1 - - - - - - - - -
24/05:30am 28.5 ESE 18 20 1010.1 - - - - - - - - -
24/05:00am 28.6 E 18 18 1009.7 - - - - - - - - -
24/04:30am 28.3 ESE 16 24 1009.7 - - - - - - - - -
24/04:00am 28.8 ESE 17 19 1009.8 - - - - - - - - -
24/03:30am 28.1 E 12 14 1009.8 - - - - - - - - -
24/03:00am 28.5 ESE 12 28 1010.0 - - - - - - - - -
24/02:56am 27.9 ESE 17 27 1010.0 - - - - - - - - -

Other Formats:

Comma delimited format used in spreadsheet applications
http://www.bom.gov.au/fwo/IDQ60701/IDQ60701.95288.axf

JavaScript Object Notation format (JSON) in row-major order
http://www.bom.gov.au/fwo/IDQ60701/IDQ60701.95288.json